sensor_id;sensor_type;location;lat;lon;timestamp;P1;durP1;ratioP1;P2;durP2;ratioP2
8007;SDS011;4049;49.468;11.200;2023-04-24T00:02:16;2.53;;;1.50;;
8007;SDS011;4049;49.468;11.200;2023-04-24T00:04:43;2.23;;;1.73;;
8007;SDS011;4049;49.468;11.200;2023-04-24T00:07:10;2.30;;;1.43;;
8007;SDS011;4049;49.468;11.200;2023-04-24T00:09:37;1.83;;;1.63;;
8007;SDS011;4049;49.468;11.200;2023-04-24T00:12:04;5.20;;;2.10;;
8007;SDS011;4049;49.468;11.200;2023-04-24T00:14:31;1.93;;;1.50;;
8007;SDS011;4049;49.468;11.200;2023-04-24T00:16:59;2.60;;;1.67;;
8007;SDS011;4049;49.468;11.200;2023-04-24T00:19:28;3.17;;;1.70;;
8007;SDS011;4049;49.468;11.200;2023-04-24T00:21:55;2.50;;;1.80;;
8007;SDS011;4049;49.468;11.200;2023-04-24T00:24:22;4.47;;;1.70;;
8007;SDS011;4049;49.468;11.200;2023-04-24T00:26:49;2.83;;;1.50;;
8007;SDS011;4049;49.468;11.200;2023-04-24T00:29:16;2.63;;;1.63;;
8007;SDS011;4049;49.468;11.200;2023-04-24T00:31:46;2.77;;;1.90;;
8007;SDS011;4049;49.468;11.200;2023-04-24T00:34:13;3.53;;;1.77;;
8007;SDS011;4049;49.468;11.200;2023-04-24T00:36:41;2.80;;;1.80;;
8007;SDS011;4049;49.468;11.200;2023-04-24T00:39:08;4.93;;;2.33;;
8007;SDS011;4049;49.468;11.200;2023-04-24T00:41:35;2.20;;;2.00;;
8007;SDS011;4049;49.468;11.200;2023-04-24T00:44:02;3.37;;;1.83;;
8007;SDS011;4049;49.468;11.200;2023-04-24T00:46:29;2.40;;;1.80;;
8007;SDS011;4049;49.468;11.200;2023-04-24T00:48:56;3.33;;;2.00;;
8007;SDS011;4049;49.468;11.200;2023-04-24T00:51:25;2.23;;;1.90;;
8007;SDS011;4049;49.468;11.200;2023-04-24T00:53:53;3.47;;;1.97;;
8007;SDS011;4049;49.468;11.200;2023-04-24T00:56:20;2.37;;;1.80;;
8007;SDS011;4049;49.468;11.200;2023-04-24T00:58:48;3.90;;;1.83;;
8007;SDS011;4049;49.468;11.200;2023-04-24T01:01:15;2.80;;;1.73;;
8007;SDS011;4049;49.468;11.200;2023-04-24T01:03:43;3.03;;;1.70;;
8007;SDS011;4049;49.468;11.200;2023-04-24T01:06:10;4.57;;;1.93;;
8007;SDS011;4049;49.468;11.200;2023-04-24T01:08:37;3.20;;;1.97;;
8007;SDS011;4049;49.468;11.200;2023-04-24T01:11:07;2.37;;;1.83;;
8007;SDS011;4049;49.468;11.200;2023-04-24T01:13:34;2.37;;;2.00;;
8007;SDS011;4049;49.468;11.200;2023-04-24T01:16:01;3.07;;;1.80;;
8007;SDS011;4049;49.468;11.200;2023-04-24T01:18:28;3.80;;;1.93;;
8007;SDS011;4049;49.468;11.200;2023-04-24T01:20:57;5.20;;;1.80;;
8007;SDS011;4049;49.468;11.200;2023-04-24T01:23:26;3.47;;;1.87;;
8007;SDS011;4049;49.468;11.200;2023-04-24T01:25:53;2.83;;;1.70;;
8007;SDS011;4049;49.468;11.200;2023-04-24T01:28:19;2.83;;;1.80;;
8007;SDS011;4049;49.468;11.200;2023-04-24T01:30:47;2.57;;;2.00;;
8007;SDS011;4049;49.468;11.200;2023-04-24T01:33:13;2.00;;;1.53;;
8007;SDS011;4049;49.468;11.200;2023-04-24T01:35:40;3.40;;;1.70;;
8007;SDS011;4049;49.468;11.200;2023-04-24T01:38:08;1.63;;;1.53;;
8007;SDS011;4049;49.468;11.200;2023-04-24T01:40:36;2.60;;;1.77;;
8007;SDS011;4049;49.468;11.200;2023-04-24T01:43:03;3.60;;;1.70;;
8007;SDS011;4049;49.468;11.200;2023-04-24T01:45:30;2.93;;;1.77;;
8007;SDS011;4049;49.468;11.200;2023-04-24T01:47:57;2.33;;;1.53;;
8007;SDS011;4049;49.468;11.200;2023-04-24T01:50:23;2.67;;;2.00;;
8007;SDS011;4049;49.468;11.200;2023-04-24T01:52:50;2.07;;;1.83;;
8007;SDS011;4049;49.468;11.200;2023-04-24T01:55:17;2.27;;;1.73;;
8007;SDS011;4049;49.468;11.200;2023-04-24T01:57:45;2.27;;;1.70;;
8007;SDS011;4049;49.468;11.200;2023-04-24T02:00:12;3.27;;;1.87;;
8007;SDS011;4049;49.468;11.200;2023-04-24T02:02:39;2.43;;;1.73;;
8007;SDS011;4049;49.468;11.200;2023-04-24T02:05:07;2.30;;;1.63;;
8007;SDS011;4049;49.468;11.200;2023-04-24T02:07:34;2.07;;;1.70;;
8007;SDS011;4049;49.468;11.200;2023-04-24T02:10:01;2.00;;;1.80;;
8007;SDS011;4049;49.468;11.200;2023-04-24T02:12:29;3.20;;;1.70;;
8007;SDS011;4049;49.468;11.200;2023-04-24T02:14:57;3.27;;;1.70;;
8007;SDS011;4049;49.468;11.200;2023-04-24T02:17:24;4.80;;;1.93;;
8007;SDS011;4049;49.468;11.200;2023-04-24T02:19:51;1.77;;;1.67;;
8007;SDS011;4049;49.468;11.200;2023-04-24T02:22:18;2.97;;;1.80;;
8007;SDS011;4049;49.468;11.200;2023-04-24T02:24:45;1.93;;;1.73;;
8007;SDS011;4049;49.468;11.200;2023-04-24T02:27:12;2.20;;;1.73;;
8007;SDS011;4049;49.468;11.200;2023-04-24T02:29:38;2.23;;;1.63;;
8007;SDS011;4049;49.468;11.200;2023-04-24T02:32:07;2.77;;;1.93;;
8007;SDS011;4049;49.468;11.200;2023-04-24T02:34:36;2.30;;;1.60;;
8007;SDS011;4049;49.468;11.200;2023-04-24T02:37:03;1.80;;;1.57;;
8007;SDS011;4049;49.468;11.200;2023-04-24T02:39:30;1.50;;;1.40;;
8007;SDS011;4049;49.468;11.200;2023-04-24T02:41:57;1.70;;;1.37;;
8007;SDS011;4049;49.468;11.200;2023-04-24T02:44:24;2.07;;;1.67;;
8007;SDS011;4049;49.468;11.200;2023-04-24T02:46:50;2.23;;;1.70;;
8007;SDS011;4049;49.468;11.200;2023-04-24T02:49:19;2.90;;;1.80;;
8007;SDS011;4049;49.468;11.200;2023-04-24T02:51:45;2.10;;;1.43;;
8007;SDS011;4049;49.468;11.200;2023-04-24T02:54:12;2.10;;;1.70;;
8007;SDS011;4049;49.468;11.200;2023-04-24T02:56:39;2.70;;;1.50;;
8007;SDS011;4049;49.468;11.200;2023-04-24T02:59:06;1.90;;;1.50;;
8007;SDS011;4049;49.468;11.200;2023-04-24T03:01:33;2.17;;;1.70;;
8007;SDS011;4049;49.468;11.200;2023-04-24T03:04:00;1.90;;;1.70;;
8007;SDS011;4049;49.468;11.200;2023-04-24T03:06:29;1.90;;;1.70;;
8007;SDS011;4049;49.468;11.200;2023-04-24T03:08:56;2.47;;;1.70;;
8007;SDS011;4049;49.468;11.200;2023-04-24T03:11:23;1.70;;;1.60;;
8007;SDS011;4049;49.468;11.200;2023-04-24T03:13:50;2.90;;;1.53;;
8007;SDS011;4049;49.468;11.200;2023-04-24T03:16:17;1.67;;;1.43;;
8007;SDS011;4049;49.468;11.200;2023-04-24T03:18:43;1.80;;;1.67;;
8007;SDS011;4049;49.468;11.200;2023-04-24T03:21:11;1.97;;;1.77;;
8007;SDS011;4049;49.468;11.200;2023-04-24T03:23:39;2.27;;;1.63;;
8007;SDS011;4049;49.468;11.200;2023-04-24T03:26:06;2.50;;;1.53;;
8007;SDS011;4049;49.468;11.200;2023-04-24T03:28:33;1.63;;;1.53;;
8007;SDS011;4049;49.468;11.200;2023-04-24T03:30:59;2.70;;;1.97;;
8007;SDS011;4049;49.468;11.200;2023-04-24T03:33:26;2.00;;;1.70;;
8007;SDS011;4049;49.468;11.200;2023-04-24T03:35:53;2.13;;;1.87;;
8007;SDS011;4049;49.468;11.200;2023-04-24T03:38:20;2.87;;;1.83;;
8007;SDS011;4049;49.468;11.200;2023-04-24T03:40:48;2.10;;;1.90;;
8007;SDS011;4049;49.468;11.200;2023-04-24T03:43:15;2.00;;;1.57;;
8007;SDS011;4049;49.468;11.200;2023-04-24T03:45:41;2.20;;;1.80;;
8007;SDS011;4049;49.468;11.200;2023-04-24T03:48:08;3.43;;;1.70;;
8007;SDS011;4049;49.468;11.200;2023-04-24T03:50:35;3.40;;;1.80;;
8007;SDS011;4049;49.468;11.200;2023-04-24T03:53:02;2.33;;;1.80;;
8007;SDS011;4049;49.468;11.200;2023-04-24T03:55:29;2.50;;;1.80;;
8007;SDS011;4049;49.468;11.200;2023-04-24T03:57:57;1.77;;;1.67;;
8007;SDS011;4049;49.468;11.200;2023-04-24T04:00:24;4.33;;;2.10;;
8007;SDS011;4049;49.468;11.200;2023-04-24T04:02:51;2.20;;;1.60;;
8007;SDS011;4049;49.468;11.200;2023-04-24T04:05:18;2.70;;;2.00;;
8007;SDS011;4049;49.468;11.200;2023-04-24T04:07:45;3.73;;;1.93;;
8007;SDS011;4049;49.468;11.200;2023-04-24T04:10:12;2.40;;;1.73;;
8007;SDS011;4049;49.468;11.200;2023-04-24T04:12:39;2.13;;;1.93;;
8007;SDS011;4049;49.468;11.200;2023-04-24T04:15:08;1.80;;;1.67;;
8007;SDS011;4049;49.468;11.200;2023-04-24T04:17:35;3.60;;;2.00;;
8007;SDS011;4049;49.468;11.200;2023-04-24T04:20:03;2.90;;;2.13;;
8007;SDS011;4049;49.468;11.200;2023-04-24T04:22:33;1.80;;;1.60;;
8007;SDS011;4049;49.468;11.200;2023-04-24T04:25:00;2.10;;;1.80;;
8007;SDS011;4049;49.468;11.200;2023-04-24T04:27:27;2.03;;;1.80;;
8007;SDS011;4049;49.468;11.200;2023-04-24T04:29:57;2.60;;;1.90;;
8007;SDS011;4049;49.468;11.200;2023-04-24T04:32:25;3.70;;;1.77;;
8007;SDS011;4049;49.468;11.200;2023-04-24T04:34:52;2.90;;;1.67;;
8007;SDS011;4049;49.468;11.200;2023-04-24T04:37:19;3.03;;;1.80;;
8007;SDS011;4049;49.468;11.200;2023-04-24T04:39:46;3.97;;;2.03;;
8007;SDS011;4049;49.468;11.200;2023-04-24T04:42:13;2.43;;;1.90;;
8007;SDS011;4049;49.468;11.200;2023-04-24T04:44:40;3.87;;;1.90;;
8007;SDS011;4049;49.468;11.200;2023-04-24T04:47:07;2.30;;;1.70;;
8007;SDS011;4049;49.468;11.200;2023-04-24T04:49:37;2.73;;;2.03;;
8007;SDS011;4049;49.468;11.200;2023-04-24T04:52:04;3.63;;;2.00;;
8007;SDS011;4049;49.468;11.200;2023-04-24T04:54:31;2.83;;;1.93;;
8007;SDS011;4049;49.468;11.200;2023-04-24T04:56:58;2.67;;;2.20;;
8007;SDS011;4049;49.468;11.200;2023-04-24T04:59:25;3.70;;;2.40;;
8007;SDS011;4049;49.468;11.200;2023-04-24T05:01:52;3.03;;;2.40;;
8007;SDS011;4049;49.468;11.200;2023-04-24T05:04:19;2.63;;;2.40;;
8007;SDS011;4049;49.468;11.200;2023-04-24T05:06:47;2.63;;;2.27;;
8007;SDS011;4049;49.468;11.200;2023-04-24T05:09:16;4.00;;;2.27;;
8007;SDS011;4049;49.468;11.200;2023-04-24T05:11:44;2.50;;;1.90;;
8007;SDS011;4049;49.468;11.200;2023-04-24T05:14:11;2.60;;;2.00;;
8007;SDS011;4049;49.468;11.200;2023-04-24T05:16:38;4.20;;;2.40;;
8007;SDS011;4049;49.468;11.200;2023-04-24T05:19:06;3.10;;;2.23;;
8007;SDS011;4049;49.468;11.200;2023-04-24T05:21:32;3.40;;;2.10;;
8007;SDS011;4049;49.468;11.200;2023-04-24T05:24:01;2.47;;;2.10;;
8007;SDS011;4049;49.468;11.200;2023-04-24T05:26:28;2.83;;;2.30;;
8007;SDS011;4049;49.468;11.200;2023-04-24T05:28:55;2.43;;;2.10;;
8007;SDS011;4049;49.468;11.200;2023-04-24T05:31:21;6.27;;;2.33;;
8007;SDS011;4049;49.468;11.200;2023-04-24T05:33:48;2.67;;;2.23;;
8007;SDS011;4049;49.468;11.200;2023-04-24T05:36:15;4.90;;;2.27;;
8007;SDS011;4049;49.468;11.200;2023-04-24T05:38:42;4.97;;;2.13;;
8007;SDS011;4049;49.468;11.200;2023-04-24T05:41:10;2.33;;;1.67;;
8007;SDS011;4049;49.468;11.200;2023-04-24T05:43:37;2.70;;;2.20;;
8007;SDS011;4049;49.468;11.200;2023-04-24T05:46:04;3.17;;;2.37;;
8007;SDS011;4049;49.468;11.200;2023-04-24T05:48:31;2.80;;;2.23;;
8007;SDS011;4049;49.468;11.200;2023-04-24T05:50:57;4.50;;;2.30;;
8007;SDS011;4049;49.468;11.200;2023-04-24T05:53:24;5.90;;;2.20;;
8007;SDS011;4049;49.468;11.200;2023-04-24T05:55:51;2.47;;;1.93;;
8007;SDS011;4049;49.468;11.200;2023-04-24T05:58:20;3.00;;;2.37;;
8007;SDS011;4049;49.468;11.200;2023-04-24T06:00:46;3.20;;;2.27;;
8007;SDS011;4049;49.468;11.200;2023-04-24T06:03:14;4.33;;;2.10;;
8007;SDS011;4049;49.468;11.200;2023-04-24T06:05:41;2.97;;;2.23;;
8007;SDS011;4049;49.468;11.200;2023-04-24T06:08:08;2.90;;;2.27;;
8007;SDS011;4049;49.468;11.200;2023-04-24T06:10:36;3.40;;;2.20;;
8007;SDS011;4049;49.468;11.200;2023-04-24T06:13:02;3.10;;;2.20;;
8007;SDS011;4049;49.468;11.200;2023-04-24T06:15:30;4.90;;;2.50;;
8007;SDS011;4049;49.468;11.200;2023-04-24T06:17:58;2.70;;;2.30;;
8007;SDS011;4049;49.468;11.200;2023-04-24T06:20:25;4.23;;;2.40;;
8007;SDS011;4049;49.468;11.200;2023-04-24T06:22:53;5.53;;;2.30;;
8007;SDS011;4049;49.468;11.200;2023-04-24T06:25:20;2.50;;;2.00;;
8007;SDS011;4049;49.468;11.200;2023-04-24T06:27:47;3.30;;;2.00;;
8007;SDS011;4049;49.468;11.200;2023-04-24T06:30:13;2.47;;;1.90;;
8007;SDS011;4049;49.468;11.200;2023-04-24T06:32:42;2.27;;;2.07;;
8007;SDS011;4049;49.468;11.200;2023-04-24T06:35:08;2.63;;;1.83;;
8007;SDS011;4049;49.468;11.200;2023-04-24T06:37:37;3.10;;;2.00;;
8007;SDS011;4049;49.468;11.200;2023-04-24T06:40:05;2.47;;;2.00;;
8007;SDS011;4049;49.468;11.200;2023-04-24T06:42:33;2.70;;;2.00;;
8007;SDS011;4049;49.468;11.200;2023-04-24T06:45:00;2.77;;;2.07;;
8007;SDS011;4049;49.468;11.200;2023-04-24T06:47:29;2.93;;;2.00;;
8007;SDS011;4049;49.468;11.200;2023-04-24T06:49:58;2.80;;;1.60;;
8007;SDS011;4049;49.468;11.200;2023-04-24T06:52:24;2.50;;;1.63;;
8007;SDS011;4049;49.468;11.200;2023-04-24T06:54:51;2.57;;;1.70;;
8007;SDS011;4049;49.468;11.200;2023-04-24T06:57:18;2.13;;;1.70;;
8007;SDS011;4049;49.468;11.200;2023-04-24T06:59:46;1.57;;;1.47;;
8007;SDS011;4049;49.468;11.200;2023-04-24T07:02:12;2.80;;;1.73;;
8007;SDS011;4049;49.468;11.200;2023-04-24T07:04:39;2.20;;;1.40;;
8007;SDS011;4049;49.468;11.200;2023-04-24T07:07:08;1.90;;;1.50;;
8007;SDS011;4049;49.468;11.200;2023-04-24T07:09:38;2.97;;;1.50;;
8007;SDS011;4049;49.468;11.200;2023-04-24T07:12:07;3.10;;;1.77;;
8007;SDS011;4049;49.468;11.200;2023-04-24T07:14:35;1.97;;;1.50;;
8007;SDS011;4049;49.468;11.200;2023-04-24T07:17:02;2.30;;;1.27;;
8007;SDS011;4049;49.468;11.200;2023-04-24T07:19:29;1.60;;;1.40;;
8007;SDS011;4049;49.468;11.200;2023-04-24T07:21:56;3.43;;;1.37;;
8007;SDS011;4049;49.468;11.200;2023-04-24T07:24:25;2.37;;;1.53;;
8007;SDS011;4049;49.468;11.200;2023-04-24T07:26:54;2.80;;;1.60;;
8007;SDS011;4049;49.468;11.200;2023-04-24T07:29:22;3.30;;;1.50;;
8007;SDS011;4049;49.468;11.200;2023-04-24T07:31:48;2.03;;;1.67;;
8007;SDS011;4049;49.468;11.200;2023-04-24T07:34:21;2.90;;;1.60;;
8007;SDS011;4049;49.468;11.200;2023-04-24T07:36:48;2.00;;;1.50;;
8007;SDS011;4049;49.468;11.200;2023-04-24T07:39:15;1.50;;;1.40;;
8007;SDS011;4049;49.468;11.200;2023-04-24T07:41:43;2.13;;;1.50;;
8007;SDS011;4049;49.468;11.200;2023-04-24T07:44:10;2.13;;;1.53;;
8007;SDS011;4049;49.468;11.200;2023-04-24T07:46:37;3.07;;;1.60;;
8007;SDS011;4049;49.468;11.200;2023-04-24T07:49:04;2.23;;;2.03;;
8007;SDS011;4049;49.468;11.200;2023-04-24T07:51:30;2.87;;;1.70;;
8007;SDS011;4049;49.468;11.200;2023-04-24T07:54:03;3.37;;;1.70;;
8007;SDS011;4049;49.468;11.200;2023-04-24T07:56:30;2.73;;;2.00;;
8007;SDS011;4049;49.468;11.200;2023-04-24T07:58:59;2.63;;;1.80;;
8007;SDS011;4049;49.468;11.200;2023-04-24T08:01:27;2.53;;;1.80;;
8007;SDS011;4049;49.468;11.200;2023-04-24T08:03:53;1.70;;;1.50;;
8007;SDS011;4049;49.468;11.200;2023-04-24T08:06:20;2.10;;;1.90;;
8007;SDS011;4049;49.468;11.200;2023-04-24T08:08:47;2.13;;;1.70;;
8007;SDS011;4049;49.468;11.200;2023-04-24T08:11:14;2.20;;;1.70;;
8007;SDS011;4049;49.468;11.200;2023-04-24T08:13:41;2.13;;;1.60;;
8007;SDS011;4049;49.468;11.200;2023-04-24T08:16:09;2.33;;;1.77;;
8007;SDS011;4049;49.468;11.200;2023-04-24T08:18:36;3.47;;;1.80;;
8007;SDS011;4049;49.468;11.200;2023-04-24T08:21:03;2.10;;;1.70;;
8007;SDS011;4049;49.468;11.200;2023-04-24T08:23:30;2.40;;;2.17;;
8007;SDS011;4049;49.468;11.200;2023-04-24T08:25:57;4.70;;;2.37;;
8007;SDS011;4049;49.468;11.200;2023-04-24T08:28:24;1.70;;;1.60;;
8007;SDS011;4049;49.468;11.200;2023-04-24T08:30:51;1.90;;;1.70;;
8007;SDS011;4049;49.468;11.200;2023-04-24T08:33:21;2.47;;;1.93;;
8007;SDS011;4049;49.468;11.200;2023-04-24T08:35:47;2.10;;;1.80;;
8007;SDS011;4049;49.468;11.200;2023-04-24T08:38:15;1.77;;;1.60;;
8007;SDS011;4049;49.468;11.200;2023-04-24T08:40:42;2.60;;;2.00;;
8007;SDS011;4049;49.468;11.200;2023-04-24T08:43:11;2.93;;;2.10;;
8007;SDS011;4049;49.468;11.200;2023-04-24T08:45:39;3.27;;;2.43;;
8007;SDS011;4049;49.468;11.200;2023-04-24T08:48:06;3.37;;;2.33;;
8007;SDS011;4049;49.468;11.200;2023-04-24T08:50:36;3.03;;;2.33;;
8007;SDS011;4049;49.468;11.200;2023-04-24T08:53:06;3.03;;;2.10;;
8007;SDS011;4049;49.468;11.200;2023-04-24T08:55:34;3.33;;;2.60;;
8007;SDS011;4049;49.468;11.200;2023-04-24T08:58:01;3.87;;;2.50;;
8007;SDS011;4049;49.468;11.200;2023-04-24T09:00:28;3.70;;;2.60;;
8007;SDS011;4049;49.468;11.200;2023-04-24T09:02:56;5.30;;;2.50;;
8007;SDS011;4049;49.468;11.200;2023-04-24T09:05:23;3.13;;;2.67;;
8007;SDS011;4049;49.468;11.200;2023-04-24T09:07:53;4.10;;;2.37;;
8007;SDS011;4049;49.468;11.200;2023-04-24T09:10:21;3.37;;;2.50;;
8007;SDS011;4049;49.468;11.200;2023-04-24T09:12:50;4.60;;;2.43;;
8007;SDS011;4049;49.468;11.200;2023-04-24T09:15:18;4.40;;;2.30;;
8007;SDS011;4049;49.468;11.200;2023-04-24T09:17:45;3.00;;;2.50;;
8007;SDS011;4049;49.468;11.200;2023-04-24T09:20:12;3.90;;;2.30;;
8007;SDS011;4049;49.468;11.200;2023-04-24T09:22:39;5.57;;;2.10;;
8007;SDS011;4049;49.468;11.200;2023-04-24T09:25:08;3.23;;;2.23;;
8007;SDS011;4049;49.468;11.200;2023-04-24T09:27:38;4.33;;;2.50;;
8007;SDS011;4049;49.468;11.200;2023-04-24T09:30:09;3.57;;;2.20;;
8007;SDS011;4049;49.468;11.200;2023-04-24T09:32:36;4.37;;;2.60;;
8007;SDS011;4049;49.468;11.200;2023-04-24T09:35:07;2.47;;;2.27;;
8007;SDS011;4049;49.468;11.200;2023-04-24T09:37:35;2.30;;;2.00;;
8007;SDS011;4049;49.468;11.200;2023-04-24T09:40:11;4.73;;;2.00;;
8007;SDS011;4049;49.468;11.200;2023-04-24T09:42:45;2.50;;;2.10;;
8007;SDS011;4049;49.468;11.200;2023-04-24T09:45:17;2.30;;;2.10;;
8007;SDS011;4049;49.468;11.200;2023-04-24T09:47:44;4.83;;;2.33;;
8007;SDS011;4049;49.468;11.200;2023-04-24T09:50:12;3.37;;;2.20;;
8007;SDS011;4049;49.468;11.200;2023-04-24T09:52:40;1.83;;;1.70;;
8007;SDS011;4049;49.468;11.200;2023-04-24T09:55:20;2.93;;;1.93;;
8007;SDS011;4049;49.468;11.200;2023-04-24T09:57:47;3.10;;;2.07;;
8007;SDS011;4049;49.468;11.200;2023-04-24T10:00:20;2.90;;;1.90;;
8007;SDS011;4049;49.468;11.200;2023-04-24T10:02:54;1.90;;;1.80;;
8007;SDS011;4049;49.468;11.200;2023-04-24T10:05:26;3.67;;;1.60;;
8007;SDS011;4049;49.468;11.200;2023-04-24T10:07:59;5.03;;;1.90;;
8007;SDS011;4049;49.468;11.200;2023-04-24T10:10:29;1.77;;;1.40;;
8007;SDS011;4049;49.468;11.200;2023-04-24T10:12:57;1.77;;;1.60;;
8007;SDS011;4049;49.468;11.200;2023-04-24T10:15:24;1.70;;;1.60;;
8007;SDS011;4049;49.468;11.200;2023-04-24T10:17:52;2.10;;;1.90;;
8007;SDS011;4049;49.468;11.200;2023-04-24T10:20:20;5.13;;;1.70;;
8007;SDS011;4049;49.468;11.200;2023-04-24T10:22:47;3.70;;;1.73;;
8007;SDS011;4049;49.468;11.200;2023-04-24T10:25:16;4.20;;;2.03;;
8007;SDS011;4049;49.468;11.200;2023-04-24T10:27:46;1.60;;;1.50;;
8007;SDS011;4049;49.468;11.200;2023-04-24T10:30:14;3.97;;;1.60;;
8007;SDS011;4049;49.468;11.200;2023-04-24T10:32:41;3.37;;;1.40;;
8007;SDS011;4049;49.468;11.200;2023-04-24T10:35:08;1.90;;;1.40;;
8007;SDS011;4049;49.468;11.200;2023-04-24T10:37:38;1.37;;;1.10;;
8007;SDS011;4049;49.468;11.200;2023-04-24T10:40:08;2.47;;;1.20;;
8007;SDS011;4049;49.468;11.200;2023-04-24T10:42:36;2.03;;;1.40;;
8007;SDS011;4049;49.468;11.200;2023-04-24T10:45:08;1.23;;;1.13;;
8007;SDS011;4049;49.468;11.200;2023-04-24T10:47:50;1.40;;;1.20;;
8007;SDS011;4049;49.468;11.200;2023-04-24T10:50:18;1.33;;;1.23;;
8007;SDS011;4049;49.468;11.200;2023-04-24T10:52:45;2.93;;;1.40;;
8007;SDS011;4049;49.468;11.200;2023-04-24T10:55:12;1.33;;;1.23;;
8007;SDS011;4049;49.468;11.200;2023-04-24T11:00:31;1.40;;;1.30;;
8007;SDS011;4049;49.468;11.200;2023-04-24T11:02:58;2.27;;;1.27;;
8007;SDS011;4049;49.468;11.200;2023-04-24T11:08:21;1.40;;;1.30;;
8007;SDS011;4049;49.468;11.200;2023-04-24T11:10:54;1.43;;;1.33;;
8007;SDS011;4049;49.468;11.200;2023-04-24T11:13:23;1.40;;;1.30;;
8007;SDS011;4049;49.468;11.200;2023-04-24T11:18:50;1.57;;;1.40;;
8007;SDS011;4049;49.468;11.200;2023-04-24T11:21:19;1.40;;;1.30;;
8007;SDS011;4049;49.468;11.200;2023-04-24T11:23:46;2.00;;;1.27;;
8007;SDS011;4049;49.468;11.200;2023-04-24T11:26:17;1.60;;;1.30;;
8007;SDS011;4049;49.468;11.200;2023-04-24T11:28:48;1.43;;;1.20;;
8007;SDS011;4049;49.468;11.200;2023-04-24T11:31:35;2.23;;;1.30;;
8007;SDS011;4049;49.468;11.200;2023-04-24T11:34:06;1.47;;;1.37;;
8007;SDS011;4049;49.468;11.200;2023-04-24T11:36:38;2.73;;;1.50;;
8007;SDS011;4049;49.468;11.200;2023-04-24T11:39:05;2.10;;;1.60;;
8007;SDS011;4049;49.468;11.200;2023-04-24T11:41:33;1.97;;;1.67;;
8007;SDS011;4049;49.468;11.200;2023-04-24T11:44:00;4.00;;;1.73;;
8007;SDS011;4049;49.468;11.200;2023-04-24T11:46:28;1.90;;;1.70;;
8007;SDS011;4049;49.468;11.200;2023-04-24T11:48:58;2.07;;;1.70;;
8007;SDS011;4049;49.468;11.200;2023-04-24T11:51:26;1.63;;;1.50;;
8007;SDS011;4049;49.468;11.200;2023-04-24T11:53:53;2.20;;;2.00;;
8007;SDS011;4049;49.468;11.200;2023-04-24T11:56:21;2.10;;;1.80;;
8007;SDS011;4049;49.468;11.200;2023-04-24T11:58:48;2.33;;;1.70;;
8007;SDS011;4049;49.468;11.200;2023-04-24T12:01:17;2.40;;;1.70;;
8007;SDS011;4049;49.468;11.200;2023-04-24T12:03:47;2.37;;;1.77;;
8007;SDS011;4049;49.468;11.200;2023-04-24T12:06:17;2.50;;;1.90;;
8007;SDS011;4049;49.468;11.200;2023-04-24T12:08:47;2.00;;;1.80;;
8007;SDS011;4049;49.468;11.200;2023-04-24T12:11:15;2.50;;;2.00;;
8007;SDS011;4049;49.468;11.200;2023-04-24T12:13:44;2.10;;;1.70;;
8007;SDS011;4049;49.468;11.200;2023-04-24T12:16:11;3.60;;;1.60;;
8007;SDS011;4049;49.468;11.200;2023-04-24T12:18:42;2.50;;;1.63;;
8007;SDS011;4049;49.468;11.200;2023-04-24T12:21:18;2.43;;;1.93;;
8007;SDS011;4049;49.468;11.200;2023-04-24T12:23:46;1.50;;;1.40;;
8007;SDS011;4049;49.468;11.200;2023-04-24T12:26:16;3.60;;;2.00;;
8007;SDS011;4049;49.468;11.200;2023-04-24T12:28:46;2.47;;;1.77;;
8007;SDS011;4049;49.468;11.200;2023-04-24T12:31:14;2.77;;;1.80;;
8007;SDS011;4049;49.468;11.200;2023-04-24T12:33:41;2.67;;;2.00;;
8007;SDS011;4049;49.468;11.200;2023-04-24T12:36:09;3.80;;;2.10;;
8007;SDS011;4049;49.468;11.200;2023-04-24T12:38:38;2.80;;;2.17;;
8007;SDS011;4049;49.468;11.200;2023-04-24T12:41:10;4.03;;;2.00;;
8007;SDS011;4049;49.468;11.200;2023-04-24T12:43:37;2.53;;;1.73;;
8007;SDS011;4049;49.468;11.200;2023-04-24T12:46:04;2.40;;;2.03;;
8007;SDS011;4049;49.468;11.200;2023-04-24T12:48:31;2.20;;;1.80;;
8007;SDS011;4049;49.468;11.200;2023-04-24T12:50:58;2.03;;;1.70;;
8007;SDS011;4049;49.468;11.200;2023-04-24T12:53:26;1.93;;;1.73;;
8007;SDS011;4049;49.468;11.200;2023-04-24T12:55:56;4.53;;;1.73;;
8007;SDS011;4049;49.468;11.200;2023-04-24T12:58:23;2.10;;;1.47;;
8007;SDS011;4049;49.468;11.200;2023-04-24T13:00:50;1.93;;;1.40;;
8007;SDS011;4049;49.468;11.200;2023-04-24T13:03:17;1.40;;;1.30;;
8007;SDS011;4049;49.468;11.200;2023-04-24T13:05:44;1.50;;;1.40;;
8007;SDS011;4049;49.468;11.200;2023-04-24T13:08:14;2.37;;;1.40;;
8007;SDS011;4049;49.468;11.200;2023-04-24T13:10:41;2.80;;;1.53;;
8007;SDS011;4049;49.468;11.200;2023-04-24T13:13:09;1.50;;;1.40;;
8007;SDS011;4049;49.468;11.200;2023-04-24T13:15:36;1.40;;;1.23;;
8007;SDS011;4049;49.468;11.200;2023-04-24T13:18:03;1.73;;;1.30;;
8007;SDS011;4049;49.468;11.200;2023-04-24T13:20:30;2.10;;;1.40;;
8007;SDS011;4049;49.468;11.200;2023-04-24T13:22:57;3.20;;;1.50;;
8007;SDS011;4049;49.468;11.200;2023-04-24T13:25:23;1.20;;;1.10;;
8007;SDS011;4049;49.468;11.200;2023-04-24T13:27:51;1.73;;;1.50;;
8007;SDS011;4049;49.468;11.200;2023-04-24T13:30:20;2.80;;;1.33;;
8007;SDS011;4049;49.468;11.200;2023-04-24T13:32:46;2.57;;;1.70;;
8007;SDS011;4049;49.468;11.200;2023-04-24T13:35:13;3.00;;;1.60;;
8007;SDS011;4049;49.468;11.200;2023-04-24T13:37:40;3.00;;;1.83;;
8007;SDS011;4049;49.468;11.200;2023-04-24T13:40:07;1.70;;;1.60;;
8007;SDS011;4049;49.468;11.200;2023-04-24T13:42:35;3.20;;;2.00;;
8007;SDS011;4049;49.468;11.200;2023-04-24T13:45:02;2.60;;;1.70;;
8007;SDS011;4049;49.468;11.200;2023-04-24T13:47:31;4.13;;;1.67;;
8007;SDS011;4049;49.468;11.200;2023-04-24T13:49:58;1.73;;;1.63;;
8007;SDS011;4049;49.468;11.200;2023-04-24T13:52:25;2.13;;;1.80;;
8007;SDS011;4049;49.468;11.200;2023-04-24T13:54:52;2.43;;;2.10;;
8007;SDS011;4049;49.468;11.200;2023-04-24T13:57:19;3.10;;;2.10;;
8007;SDS011;4049;49.468;11.200;2023-04-24T13:59:46;2.13;;;1.93;;
8007;SDS011;4049;49.468;11.200;2023-04-24T14:02:13;4.07;;;2.20;;
8007;SDS011;4049;49.468;11.200;2023-04-24T14:04:41;2.77;;;2.03;;
8007;SDS011;4049;49.468;11.200;2023-04-24T14:07:08;2.30;;;1.90;;
8007;SDS011;4049;49.468;11.200;2023-04-24T14:09:35;1.83;;;1.67;;
8007;SDS011;4049;49.468;11.200;2023-04-24T14:12:01;5.07;;;1.90;;
8007;SDS011;4049;49.468;11.200;2023-04-24T14:14:28;2.30;;;1.90;;
8007;SDS011;4049;49.468;11.200;2023-04-24T14:16:56;2.53;;;2.20;;
8007;SDS011;4049;49.468;11.200;2023-04-24T14:19:23;3.57;;;1.93;;
8007;SDS011;4049;49.468;11.200;2023-04-24T14:21:51;2.40;;;2.20;;
8007;SDS011;4049;49.468;11.200;2023-04-24T14:24:18;2.00;;;1.80;;
8007;SDS011;4049;49.468;11.200;2023-04-24T14:26:45;1.93;;;1.73;;
8007;SDS011;4049;49.468;11.200;2023-04-24T14:29:12;2.90;;;2.20;;
8007;SDS011;4049;49.468;11.200;2023-04-24T14:31:39;3.00;;;2.30;;
8007;SDS011;4049;49.468;11.200;2023-04-24T14:34:06;3.83;;;2.20;;
8007;SDS011;4049;49.468;11.200;2023-04-24T14:36:33;2.57;;;2.00;;
8007;SDS011;4049;49.468;11.200;2023-04-24T14:39:01;3.90;;;3.00;;
8007;SDS011;4049;49.468;11.200;2023-04-24T14:41:31;2.20;;;1.73;;
8007;SDS011;4049;49.468;11.200;2023-04-24T14:44:00;3.07;;;1.90;;
8007;SDS011;4049;49.468;11.200;2023-04-24T14:46:27;3.37;;;2.20;;
8007;SDS011;4049;49.468;11.200;2023-04-24T14:48:55;2.53;;;2.07;;
8007;SDS011;4049;49.468;11.200;2023-04-24T14:51:22;5.13;;;2.17;;
8007;SDS011;4049;49.468;11.200;2023-04-24T14:53:49;2.70;;;2.30;;
8007;SDS011;4049;49.468;11.200;2023-04-24T14:56:17;3.00;;;1.83;;
8007;SDS011;4049;49.468;11.200;2023-04-24T14:58:44;4.77;;;2.07;;
8007;SDS011;4049;49.468;11.200;2023-04-24T15:01:10;3.47;;;2.10;;
8007;SDS011;4049;49.468;11.200;2023-04-24T15:03:37;3.03;;;1.90;;
8007;SDS011;4049;49.468;11.200;2023-04-24T15:06:05;3.20;;;2.00;;
8007;SDS011;4049;49.468;11.200;2023-04-24T15:08:32;2.93;;;1.80;;
8007;SDS011;4049;49.468;11.200;2023-04-24T15:10:58;2.00;;;1.80;;
8007;SDS011;4049;49.468;11.200;2023-04-24T15:13:27;1.97;;;1.40;;